createdAt,value
2022-10-05T00:00:21.278Z,101581.41
2022-10-05T00:02:49.544Z,101568.81
2022-10-05T00:05:29.267Z,101559.66
2022-10-05T00:08:05.134Z,101566.00
2022-10-05T00:10:31.972Z,101554.59
2022-10-05T00:12:58.726Z,101566.56
2022-10-05T00:15:25.508Z,101562.31
2022-10-05T00:17:52.218Z,101550.34
2022-10-05T00:20:26.715Z,101550.69
2022-10-05T00:23:02.680Z,101550.94
2022-10-05T00:25:29.341Z,101545.63
2022-10-05T00:28:00.197Z,101547.03
2022-10-05T00:30:33.158Z,101544.25
2022-10-05T00:33:00.149Z,101555.38
2022-10-05T00:35:29.234Z,101539.53
2022-10-05T00:37:56.882Z,101552.38
2022-10-05T00:40:33.016Z,101552.38
2022-10-05T00:43:23.661Z,101554.38
2022-10-05T00:46:07.668Z,101549.75
2022-10-05T00:49:03.653Z,101543.84
2022-10-05T00:51:35.425Z,101536.28
2022-10-05T00:54:18.596Z,101540.13
2022-10-05T00:57:04.904Z,101547.41
2022-10-05T00:59:50.364Z,101540.94
2022-10-05T01:02:35.892Z,101535.09
2022-10-05T01:05:25.728Z,101537.91
2022-10-05T01:08:04.375Z,101534.09
2022-10-05T01:10:34.714Z,101534.06
2022-10-05T01:13:22.411Z,101527.97
2022-10-05T01:16:13.684Z,101519.25
2022-10-05T01:18:58.823Z,101523.53
2022-10-05T01:21:27.767Z,101512.56
2022-10-05T01:24:03.120Z,101522.66
2022-10-05T01:26:57.343Z,101524.31
2022-10-05T01:29:37.914Z,101523.53
2022-10-05T01:32:20.691Z,101521.06
2022-10-05T01:35:15.183Z,101528.97
2022-10-05T01:37:53.315Z,101520.06
2022-10-05T01:40:37.774Z,101500.78
2022-10-05T01:43:17.924Z,101492.66
2022-10-05T01:46:16.605Z,101496.53
2022-10-05T01:49:12.981Z,101496.94
2022-10-05T01:51:45.933Z,101491.84
2022-10-05T01:54:25.012Z,101488.00
2022-10-05T01:57:29.165Z,101471.97
2022-10-05T02:00:11.618Z,101471.16
2022-10-05T02:02:55.989Z,101470.75
2022-10-05T02:05:43.674Z,101467.09
2022-10-05T02:08:17.086Z,101470.16
2022-10-05T02:10:49.979Z,101468.94
2022-10-05T02:13:44.764Z,101460.22
2022-10-05T02:16:29.148Z,101455.78
2022-10-05T02:19:21.142Z,101468.75
2022-10-05T02:21:55.934Z,101462.66
2022-10-05T02:24:29.797Z,101445.59
2022-10-05T02:26:57.828Z,101447.25
2022-10-05T02:29:30.561Z,101414.41
2022-10-05T02:32:03.813Z,101435.91
2022-10-05T02:34:42.001Z,101426.56
2022-10-05T02:37:55.949Z,101440.75
2022-10-05T02:40:47.805Z,101434.28
2022-10-05T02:43:39.409Z,101426.16
2022-10-05T02:46:22.081Z,101420.31
2022-10-05T02:49:00.915Z,101410.34
2022-10-05T02:51:39.156Z,101403.06
2022-10-05T02:54:20.522Z,101413.19
2022-10-05T02:56:47.580Z,101413.00
2022-10-05T02:59:28.995Z,101401.44
2022-10-05T03:02:04.811Z,101415.41
2022-10-05T03:04:48.736Z,101409.97
2022-10-05T03:07:25.412Z,101406.91
2022-10-05T03:10:13.140Z,101397.78
2022-10-05T03:13:02.499Z,101380.94
2022-10-05T03:15:53.852Z,101393.53
2022-10-05T03:18:31.260Z,101403.84
2022-10-05T03:21:06.038Z,101397.16
2022-10-05T03:24:10.263Z,101405.28
2022-10-05T03:26:56.583Z,101387.41
2022-10-05T03:29:46.511Z,101397.78
2022-10-05T03:32:33.097Z,101385.59
2022-10-05T03:35:15.726Z,101395.94
2022-10-05T03:38:12.068Z,101398.56
2022-10-05T03:40:51.357Z,101383.75
2022-10-05T03:43:37.245Z,101395.13
2022-10-05T03:46:08.739Z,101389.44
2022-10-05T03:49:05.037Z,101391.84
2022-10-05T03:51:38.376Z,101400.38
2022-10-05T03:54:15.440Z,101391.66
2022-10-05T03:57:15.466Z,101381.50
2022-10-05T03:59:52.379Z,101406.69
2022-10-05T04:02:31.141Z,101381.72
2022-10-05T04:05:15.348Z,101388.03
2022-10-05T04:08:01.589Z,101401.19
2022-10-05T04:10:50.836Z,101385.97
2022-10-05T04:13:44.356Z,101398.78
2022-10-05T04:16:17.725Z,101394.53
2022-10-05T04:18:50.483Z,101388.63
2022-10-05T04:21:25.253Z,101368.56
2022-10-05T04:24:18.351Z,101373.22
2022-10-05T04:27:21.695Z,101375.88
2022-10-05T04:30:00.862Z,101379.50
2022-10-05T04:32:57.193Z,101355.56
2022-10-05T04:35:50.228Z,101376.69
2022-10-05T04:38:32.165Z,101373.00
2022-10-05T04:41:24.319Z,101377.06
2022-10-05T04:44:09.914Z,101374.06
2022-10-05T04:46:58.368Z,101377.69
2022-10-05T04:50:03.204Z,101375.06
2022-10-05T04:52:58.351Z,101372.19
2022-10-05T04:55:54.226Z,101368.94
2022-10-05T04:58:41.385Z,101359.63
2022-10-05T05:01:52.747Z,101360.84
2022-10-05T05:04:57.375Z,101353.97
2022-10-05T05:07:54.080Z,101364.09
2022-10-05T05:10:35.725Z,101364.31
2022-10-05T05:13:40.648Z,101361.25
2022-10-05T05:16:30.136Z,101359.44
2022-10-05T05:19:28.722Z,101349.09
2022-10-05T05:22:04.250Z,101350.72
2022-10-05T05:24:46.993Z,101332.69
2022-10-05T05:27:47.827Z,101351.53
2022-10-05T05:30:48.934Z,101333.69
2022-10-05T05:33:49.573Z,101349.50
2022-10-05T05:36:27.606Z,101346.28
2022-10-05T05:39:25.864Z,101346.44
2022-10-05T05:42:00.773Z,101342.38
2022-10-05T05:44:45.258Z,101337.31
2022-10-05T05:47:19.328Z,101338.53
2022-10-05T05:50:01.802Z,101317.47
2022-10-05T05:52:59.377Z,101319.66
2022-10-05T05:55:45.054Z,101325.56
2022-10-05T05:58:29.829Z,101324.31
2022-10-05T06:01:03.296Z,101331.66
2022-10-05T06:03:43.480Z,101331.66
2022-10-05T06:06:18.340Z,101328.00
2022-10-05T06:08:53.676Z,101322.72
2022-10-05T06:11:48.968Z,101329.06
2022-10-05T06:14:28.902Z,101315.44
2022-10-05T06:17:16.252Z,101325.16
2022-10-05T06:19:45.722Z,101326.41
2022-10-05T06:22:25.796Z,101325.00
2022-10-05T06:24:58.740Z,101335.13
2022-10-05T06:27:37.416Z,101309.97
2022-10-05T06:30:06.597Z,101330.06
2022-10-05T06:32:41.125Z,101320.31
2022-10-05T06:35:28.087Z,101337.75
2022-10-05T06:38:09.336Z,101329.66
2022-10-05T06:40:43.710Z,101339.81
2022-10-05T06:43:26.126Z,101342.44
2022-10-05T06:46:34.097Z,101342.03
2022-10-05T06:49:31.251Z,101337.34
2022-10-05T06:52:40.514Z,101346.91
2022-10-05T06:55:34.440Z,101346.69
2022-10-05T06:58:17.160Z,101349.16
2022-10-05T07:00:54.239Z,101328.66
2022-10-05T07:03:28.231Z,101347.09
2022-10-05T07:06:03.488Z,101345.91
2022-10-05T07:08:43.225Z,101353.22
2022-10-05T07:11:32.840Z,101335.78
2022-10-05T07:14:43.480Z,101329.28
2022-10-05T07:17:44.871Z,101332.13
2022-10-05T07:20:16.105Z,101342.69
2022-10-05T07:23:11.827Z,101343.09
2022-10-05T07:25:50.293Z,101341.03
2022-10-05T07:28:36.339Z,101322.22
2022-10-05T07:31:17.901Z,101351.19
2022-10-05T07:33:51.385Z,101325.22
2022-10-05T07:36:54.458Z,101346.31
2022-10-05T07:39:58.353Z,101326.66
2022-10-05T07:42:48.778Z,101335.75
2022-10-05T07:45:43.366Z,101350.13
2022-10-05T07:48:34.147Z,101329.25
2022-10-05T07:51:12.778Z,101346.25
2022-10-05T07:53:51.512Z,101332.06
2022-10-05T07:56:29.715Z,101330.63
2022-10-05T07:59:26.343Z,101345.13
2022-10-05T08:02:07.828Z,101339.66
2022-10-05T08:04:53.554Z,101338.38
2022-10-05T08:07:25.003Z,101339.41
2022-10-05T08:10:03.162Z,101335.41
2022-10-05T08:12:36.310Z,101338.66
2022-10-05T08:15:16.145Z,101332.59
2022-10-05T08:17:52.030Z,101339.94
2022-10-05T08:20:40.502Z,101338.78
2022-10-05T08:23:16.271Z,101333.28
2022-10-05T08:26:24.900Z,101332.28
2022-10-05T08:29:17.198Z,101330.66
2022-10-05T08:31:49.074Z,101310.13
2022-10-05T08:34:30.986Z,101311.66
2022-10-05T08:37:07.920Z,101319.72
2022-10-05T08:39:51.210Z,101309.59
2022-10-05T08:42:36.301Z,101324.47
2022-10-05T08:45:18.349Z,101317.06
2022-10-05T08:48:21.317Z,101314.81
2022-10-05T08:51:13.514Z,101319.50
2022-10-05T08:54:15.782Z,101293.34
2022-10-05T08:56:48.721Z,101298.03
2022-10-05T08:59:19.059Z,101305.69
2022-10-05T09:02:05.041Z,101300.25
2022-10-05T09:04:43.403Z,101284.59
2022-10-05T09:07:19.638Z,101303.41
2022-10-05T09:10:04.026Z,101305.84
2022-10-05T09:12:37.533Z,101303.56
2022-10-05T09:15:26.460Z,101296.50
2022-10-05T09:18:44.733Z,101296.34
2022-10-05T09:21:30.539Z,101285.84
2022-10-05T09:24:13.295Z,101284.81
2022-10-05T09:26:58.144Z,101281.88
2022-10-05T09:29:39.721Z,101291.88
2022-10-05T09:32:44.184Z,101284.50
2022-10-05T09:35:46.119Z,101277.44
2022-10-05T09:38:50.920Z,101286.34
2022-10-05T09:41:42.675Z,101275.19
2022-10-05T09:44:28.013Z,101277.75
2022-10-05T09:47:24.399Z,101257.16
2022-10-05T09:50:03.843Z,101266.44
2022-10-05T09:52:52.235Z,101274.25
2022-10-05T09:55:39.282Z,101265.41
2022-10-05T09:58:37.203Z,101262.06
2022-10-05T10:01:35.973Z,101252.28
2022-10-05T10:04:10.341Z,101253.34
2022-10-05T10:07:05.292Z,101238.91
2022-10-05T10:09:44.795Z,101234.66
2022-10-05T10:12:35.667Z,101230.13
2022-10-05T10:15:31.333Z,101236.81
2022-10-05T10:18:12.161Z,101236.16
2022-10-05T10:21:09.736Z,101218.72
2022-10-05T10:24:01.798Z,101242.25
2022-10-05T10:26:47.750Z,101236.81
2022-10-05T10:29:37.916Z,101232.56
2022-10-05T10:32:30.820Z,101225.19
2022-10-05T10:35:31.383Z,101230.28
2022-10-05T10:38:08.986Z,101217.47
2022-10-05T10:40:50.996Z,101216.09
2022-10-05T10:43:41.141Z,101218.97
2022-10-05T10:46:16.927Z,101211.84
2022-10-05T10:48:49.104Z,101198.47
2022-10-05T10:51:22.118Z,101212.50
2022-10-05T10:54:28.703Z,101228.88
2022-10-05T10:57:16.930Z,101222.63
2022-10-05T11:00:21.671Z,101218.47
2022-10-05T11:03:26.849Z,101204.19
2022-10-05T11:06:02.914Z,101209.91
2022-10-05T11:08:59.662Z,101211.91
2022-10-05T11:12:09.412Z,101193.09
2022-10-05T11:15:32.021Z,101182.22
2022-10-05T11:18:20.819Z,101204.16
2022-10-05T11:21:17.015Z,101187.03
2022-10-05T11:24:08.673Z,101196.69
2022-10-05T11:26:51.558Z,101187.38
2022-10-05T11:29:27.876Z,101184.69
2022-10-05T11:32:19.524Z,101182.63
2022-10-05T11:35:17.557Z,101178.91
2022-10-05T11:38:15.347Z,101164.50
2022-10-05T11:41:02.276Z,101175.78
2022-10-05T11:44:00.289Z,101164.09
2022-10-05T11:46:58.522Z,101167.34
2022-10-05T11:49:48.178Z,101149.34
2022-10-05T11:52:47.821Z,101130.16
2022-10-05T11:55:33.351Z,101132.28
2022-10-05T11:58:29.540Z,101128.78
2022-10-05T12:01:36.607Z,101128.31
2022-10-05T12:04:03.401Z,101134.69
2022-10-05T12:07:08.944Z,101128.53
2022-10-05T12:10:17.439Z,101134.13
2022-10-05T12:13:22.732Z,101133.94
2022-10-05T12:16:11.189Z,101131.19
2022-10-05T12:18:55.000Z,101109.63
2022-10-05T12:21:34.242Z,101105.56
2022-10-05T12:24:26.877Z,101127.53
2022-10-05T12:27:02.535Z,101100.78
2022-10-05T12:29:45.627Z,101100.84
2022-10-05T12:32:25.855Z,101125.94
2022-10-05T12:35:43.899Z,101111.38
2022-10-05T12:38:40.213Z,101117.16
2022-10-05T12:41:09.384Z,101109.34
2022-10-05T12:44:02.498Z,101121.19
2022-10-05T12:46:37.379Z,101112.34
2022-10-05T12:49:37.292Z,101126.16
2022-10-05T12:52:27.285Z,101114.00
2022-10-05T12:55:09.639Z,101105.44
2022-10-05T12:57:43.627Z,101100.44
2022-10-05T13:00:20.324Z,101120.00
2022-10-05T13:02:55.158Z,101109.28
2022-10-05T13:05:35.638Z,101106.25
2022-10-05T13:08:25.721Z,101107.88
2022-10-05T13:11:02.215Z,101107.72
2022-10-05T13:13:41.215Z,101112.09
2022-10-05T13:16:23.267Z,101117.50
2022-10-05T13:19:15.222Z,101123.22
2022-10-05T13:22:00.833Z,101110.34
2022-10-05T13:25:09.643Z,101123.03
2022-10-05T13:27:48.408Z,101126.81
2022-10-05T13:30:22.337Z,101132.63
2022-10-05T13:33:18.120Z,101115.00
2022-10-05T13:35:53.162Z,101128.91
2022-10-05T13:38:52.476Z,101116.03
2022-10-05T13:42:00.208Z,101125.63
2022-10-05T13:44:39.841Z,101128.94
2022-10-05T13:47:37.928Z,101096.34
2022-10-05T13:50:13.825Z,101125.22
2022-10-05T13:52:50.295Z,101127.44
2022-10-05T13:55:38.388Z,101119.28
2022-10-05T13:58:23.651Z,101141.25
2022-10-05T14:00:56.976Z,101125.19
2022-10-05T14:03:24.990Z,101132.81
2022-10-05T14:06:04.248Z,101131.22
2022-10-05T14:08:45.983Z,101123.97
2022-10-05T14:11:31.306Z,101124.44
2022-10-05T14:14:10.405Z,101154.56
2022-10-05T14:17:13.333Z,101131.41
2022-10-05T14:19:48.162Z,101150.28
2022-10-05T14:22:24.653Z,101161.44
2022-10-05T14:24:57.105Z,101152.78
2022-10-05T14:27:31.428Z,101166.34
2022-10-05T14:30:02.056Z,101173.09
2022-10-05T14:32:44.192Z,101151.66
2022-10-05T14:35:12.857Z,101176.41
2022-10-05T14:38:17.044Z,101172.28
2022-10-05T14:40:44.054Z,101178.72
2022-10-05T14:43:15.179Z,101181.88
2022-10-05T14:45:56.095Z,101192.53
2022-10-05T14:48:24.504Z,101202.47
2022-10-05T14:50:56.189Z,101187.16
2022-10-05T14:53:40.710Z,101200.31
2022-10-05T14:56:44.216Z,101200.53
2022-10-05T14:59:35.968Z,101203.06
2022-10-05T15:02:35.247Z,101222.66
2022-10-05T15:05:15.355Z,101210.19
2022-10-05T15:07:46.882Z,101223.00
2022-10-05T15:10:33.975Z,101211.81
2022-10-05T15:13:12.363Z,101218.59
2022-10-05T15:15:54.007Z,101206.63
2022-10-05T15:18:41.314Z,101203.06
2022-10-05T15:21:32.786Z,101201.44
2022-10-05T15:24:21.213Z,101194.16
2022-10-05T15:26:51.407Z,101191.44
2022-10-05T15:29:41.961Z,101191.97
2022-10-05T15:32:25.025Z,101208.56
2022-10-05T15:35:22.681Z,101205.53
2022-10-05T15:38:04.007Z,101195.34
2022-10-05T15:40:37.637Z,101189.22
2022-10-05T15:43:14.162Z,101191.88
2022-10-05T15:45:53.745Z,101203.63
2022-10-05T15:48:41.061Z,101193.25
2022-10-05T15:51:26.051Z,101199.69
2022-10-05T15:54:25.820Z,101208.56
2022-10-05T15:57:12.273Z,101211.00
2022-10-05T15:59:58.688Z,101223.66
2022-10-05T16:02:47.691Z,101223.84
2022-10-05T16:05:47.190Z,101212.19
2022-10-05T16:08:51.741Z,101229.22
2022-10-05T16:11:49.702Z,101234.69
2022-10-05T16:14:29.128Z,101222.84
2022-10-05T16:17:08.111Z,101233.72
2022-10-05T16:19:51.633Z,101234.31
2022-10-05T16:22:25.234Z,101237.88
2022-10-05T16:24:55.171Z,101248.16
2022-10-05T16:27:45.290Z,101247.78
2022-10-05T16:30:21.543Z,101224.00
2022-10-05T16:33:29.167Z,101229.72
2022-10-05T16:36:19.449Z,101246.31
2022-10-05T16:39:21.708Z,101261.63
2022-10-05T16:42:11.943Z,101250.97
2022-10-05T16:44:49.167Z,101250.91
2022-10-05T16:47:46.912Z,101258.75
2022-10-05T16:50:37.277Z,101245.22
2022-10-05T16:53:20.909Z,101233.78
2022-10-05T16:55:53.870Z,101264.31
2022-10-05T16:58:26.920Z,101240.88
2022-10-05T17:01:39.945Z,101234.78
2022-10-05T17:04:19.944Z,101242.97
2022-10-05T17:07:06.176Z,101270.34
2022-10-05T17:09:54.459Z,101261.66
2022-10-05T17:12:32.873Z,101253.72
2022-10-05T17:15:35.602Z,101263.91
2022-10-05T17:18:29.432Z,101251.16
2022-10-05T17:21:14.469Z,101261.25
2022-10-05T17:24:16.388Z,101262.28
2022-10-05T17:26:57.604Z,101254.63
2022-10-05T17:29:47.664Z,101242.72
2022-10-05T17:32:17.552Z,101274.84
2022-10-05T17:35:05.291Z,101280.06
2022-10-05T17:37:39.055Z,101268.16
2022-10-05T17:40:46.656Z,101270.34
2022-10-05T17:43:16.408Z,101276.16
2022-10-05T17:45:43.156Z,101282.91
2022-10-05T17:48:11.840Z,101277.69
2022-10-05T17:51:05.005Z,101297.34
2022-10-05T17:54:02.894Z,101294.81
2022-10-05T17:56:32.121Z,101301.22
2022-10-05T17:59:01.720Z,101295.63
2022-10-05T18:01:47.295Z,101294.75
2022-10-05T18:04:14.002Z,101301.22
2022-10-05T18:06:59.126Z,101306.44
2022-10-05T18:09:27.134Z,101313.94
2022-10-05T18:12:24.217Z,101311.06
2022-10-05T18:15:01.374Z,101296.00
2022-10-05T18:17:50.681Z,101311.66
2022-10-05T18:20:32.041Z,101314.88
2022-10-05T18:23:30.343Z,101314.09
2022-10-05T18:26:07.097Z,101300.16
2022-10-05T18:29:13.908Z,101290.19
2022-10-05T18:32:02.755Z,101317.69
2022-10-05T18:35:19.451Z,101319.94
2022-10-05T18:38:28.234Z,101328.88
2022-10-05T18:41:22.693Z,101338.69
2022-10-05T18:44:07.405Z,101315.03
2022-10-05T18:46:44.881Z,101305.38
2022-10-05T18:49:48.181Z,101309.31
2022-10-05T18:52:36.710Z,101346.88
2022-10-05T18:55:28.582Z,101335.41
2022-10-05T18:58:26.849Z,101350.69
2022-10-05T19:01:15.559Z,101354.44
2022-10-05T19:03:49.661Z,101351.72
2022-10-05T19:06:28.694Z,101365.47
2022-10-05T19:09:00.931Z,101381.34
2022-10-05T19:11:43.488Z,101368.72
2022-10-05T19:14:25.671Z,101386.56
2022-10-05T19:17:26.028Z,101424.00
2022-10-05T19:20:30.325Z,101439.69
2022-10-05T19:23:33.915Z,101428.44
2022-10-05T19:26:20.530Z,101428.13
2022-10-05T19:29:08.184Z,101436.69
2022-10-05T19:31:50.230Z,101426.34
2022-10-05T19:34:54.175Z,101438.13
2022-10-05T19:37:44.246Z,101457.03
2022-10-05T19:40:22.326Z,101456.00
2022-10-05T19:43:07.302Z,101448.31
2022-10-05T19:45:46.933Z,101443.44
2022-10-05T19:48:42.841Z,101465.34
2022-10-05T19:51:27.324Z,101463.09
2022-10-05T19:53:56.447Z,101459.69
2022-10-05T19:56:31.812Z,101450.97
2022-10-05T19:59:15.189Z,101460.66
2022-10-05T20:01:50.392Z,101459.28
2022-10-05T20:04:36.061Z,101458.25
2022-10-05T20:07:04.153Z,101469.63
2022-10-05T20:09:50.782Z,101483.00
2022-10-05T20:12:17.885Z,101488.28
2022-10-05T20:15:37.438Z,101494.41
2022-10-05T20:18:58.036Z,101518.53
2022-10-05T20:22:02.871Z,101527.47
2022-10-05T20:24:32.446Z,101520.56
2022-10-05T20:27:02.647Z,101527.50
2022-10-05T20:29:48.374Z,101509.59
2022-10-05T20:32:18.234Z,101557.94
2022-10-05T20:34:58.943Z,101537.41
2022-10-05T20:37:28.589Z,101551.03
2022-10-05T20:39:55.399Z,101544.53
2022-10-05T20:42:26.779Z,101552.06
2022-10-05T20:44:56.905Z,101569.53
2022-10-05T20:47:25.884Z,101586.16
2022-10-05T20:49:57.176Z,101584.94
2022-10-05T20:52:24.278Z,101578.03
2022-10-05T20:54:58.862Z,101610.13
2022-10-05T20:57:26.753Z,101629.59
2022-10-05T20:59:53.649Z,101651.69
2022-10-05T21:02:23.511Z,101651.38
2022-10-05T21:04:54.661Z,101648.19
2022-10-05T21:07:23.362Z,101662.50
2022-10-05T21:09:59.968Z,101675.88
2022-10-05T21:12:27.912Z,101662.63
2022-10-05T21:14:57.058Z,101651.78
2022-10-05T21:17:23.869Z,101648.09
2022-10-05T21:19:51.666Z,101657.59
2022-10-05T21:22:19.045Z,101653.53
2022-10-05T21:24:46.106Z,101659.78
2022-10-05T21:27:13.125Z,101660.97
2022-10-05T21:29:44.493Z,101679.09
2022-10-05T21:32:14.124Z,101679.81
2022-10-05T21:34:41.475Z,101688.16
2022-10-05T21:37:09.033Z,101686.91
2022-10-05T21:39:39.050Z,101717.38
2022-10-05T21:42:08.839Z,101710.75
2022-10-05T21:44:35.993Z,101699.94
2022-10-05T21:47:04.301Z,101704.19
2022-10-05T21:49:31.241Z,101713.19
2022-10-05T21:52:02.298Z,101723.63
2022-10-05T21:54:31.783Z,101724.44
2022-10-05T21:57:00.120Z,101731.28
2022-10-05T21:59:31.405Z,101724.25
2022-10-05T22:01:59.203Z,101734.63
2022-10-05T22:04:28.589Z,101741.34
2022-10-05T22:06:56.455Z,101767.66
2022-10-05T22:09:26.589Z,101766.22
2022-10-05T22:11:54.996Z,101767.31
2022-10-05T22:14:22.144Z,101770.94
2022-10-05T22:16:49.213Z,101771.84
2022-10-05T22:19:20.046Z,101795.50
2022-10-05T22:21:50.073Z,101781.09
2022-10-05T22:24:17.063Z,101801.06
2022-10-05T22:26:51.694Z,101804.06
2022-10-05T22:29:19.379Z,101821.81
2022-10-05T22:31:48.872Z,101802.38
2022-10-05T22:34:17.872Z,101816.16
2022-10-05T22:36:48.363Z,101813.53
2022-10-05T22:39:16.903Z,101829.84
2022-10-05T22:41:43.899Z,101840.81
2022-10-05T22:44:11.001Z,101846.53
2022-10-05T22:46:37.862Z,101838.66
2022-10-05T22:49:04.578Z,101850.63
2022-10-05T22:51:33.715Z,101856.75
2022-10-05T22:54:00.718Z,101856.75
2022-10-05T22:56:28.827Z,101865.13
2022-10-05T22:58:55.750Z,101855.78
2022-10-05T23:01:23.964Z,101854.34
2022-10-05T23:03:51.158Z,101872.44
2022-10-05T23:06:20.429Z,101874.09
2022-10-05T23:08:50.422Z,101883.19
2022-10-05T23:11:30.916Z,101883.88
2022-10-05T23:13:58.682Z,101885.44
2022-10-05T23:16:28.878Z,101889.00
2022-10-05T23:18:57.703Z,101895.09
2022-10-05T23:21:27.017Z,101900.47
2022-10-05T23:23:56.021Z,101912.31
2022-10-05T23:26:25.502Z,101899.59
2022-10-05T23:28:57.837Z,101908.41
2022-10-05T23:31:31.172Z,101908.78
2022-10-05T23:33:58.023Z,101918.56
2022-10-05T23:36:27.951Z,101907.13
2022-10-05T23:39:00.705Z,101935.66
2022-10-05T23:41:27.888Z,101928.66
2022-10-05T23:43:57.474Z,101918.69
2022-10-05T23:46:24.512Z,101941.78
2022-10-05T23:48:51.249Z,101947.38
2022-10-05T23:51:18.325Z,101956.69
2022-10-05T23:53:45.438Z,101957.88
2022-10-05T23:56:15.197Z,101972.66
2022-10-05T23:58:42.129Z,101974.13
